sensor_id;sensor_type;location;lat;lon;timestamp;P1;durP1;ratioP1;P2;durP2;ratioP2
64986;SDS011;67903;52.108;9.358;2023-07-29T00:02:26;2.30;;;1.98;;
64986;SDS011;67903;52.108;9.358;2023-07-29T00:05:15;3.10;;;2.17;;
64986;SDS011;67903;52.108;9.358;2023-07-29T00:08:00;3.50;;;2.45;;
64986;SDS011;67903;52.108;9.358;2023-07-29T00:10:46;2.33;;;2.22;;
64986;SDS011;67903;52.108;9.358;2023-07-29T00:13:31;2.35;;;2.15;;
64986;SDS011;67903;52.108;9.358;2023-07-29T00:16:17;3.10;;;2.00;;
64986;SDS011;67903;52.108;9.358;2023-07-29T00:19:03;3.85;;;2.20;;
64986;SDS011;67903;52.108;9.358;2023-07-29T00:21:49;2.95;;;2.35;;
64986;SDS011;67903;52.108;9.358;2023-07-29T00:24:35;4.32;;;2.70;;
64986;SDS011;67903;52.108;9.358;2023-07-29T00:27:20;2.40;;;2.17;;
64986;SDS011;67903;52.108;9.358;2023-07-29T00:30:06;3.08;;;2.80;;
64986;SDS011;67903;52.108;9.358;2023-07-29T00:32:53;2.78;;;2.58;;
64986;SDS011;67903;52.108;9.358;2023-07-29T00:35:39;2.60;;;2.22;;
64986;SDS011;67903;52.108;9.358;2023-07-29T00:38:24;3.10;;;2.80;;
64986;SDS011;67903;52.108;9.358;2023-07-29T00:41:11;3.60;;;2.50;;
64986;SDS011;67903;52.108;9.358;2023-07-29T00:43:59;2.65;;;2.45;;
64986;SDS011;67903;52.108;9.358;2023-07-29T00:46:47;2.90;;;2.25;;
64986;SDS011;67903;52.108;9.358;2023-07-29T00:49:38;3.58;;;2.40;;
64986;SDS011;67903;52.108;9.358;2023-07-29T00:52:23;2.72;;;2.53;;
64986;SDS011;67903;52.108;9.358;2023-07-29T00:55:12;2.50;;;2.30;;
64986;SDS011;67903;52.108;9.358;2023-07-29T00:57:57;2.25;;;2.15;;
64986;SDS011;67903;52.108;9.358;2023-07-29T01:00:43;3.00;;;2.30;;
64986;SDS011;67903;52.108;9.358;2023-07-29T01:03:29;2.67;;;2.47;;
64986;SDS011;67903;52.108;9.358;2023-07-29T01:06:22;2.40;;;2.20;;
64986;SDS011;67903;52.108;9.358;2023-07-29T01:12:22;2.60;;;2.40;;
64986;SDS011;67903;52.108;9.358;2023-07-29T01:15:14;2.60;;;2.40;;
64986;SDS011;67903;52.108;9.358;2023-07-29T01:18:15;2.85;;;2.30;;
64986;SDS011;67903;52.108;9.358;2023-07-29T01:21:08;3.17;;;2.85;;
64986;SDS011;67903;52.108;9.358;2023-07-29T01:23:58;2.80;;;2.58;;
64986;SDS011;67903;52.108;9.358;2023-07-29T01:26:44;2.72;;;2.53;;
64986;SDS011;67903;52.108;9.358;2023-07-29T01:29:30;2.75;;;2.50;;
64986;SDS011;67903;52.108;9.358;2023-07-29T01:32:19;2.90;;;2.67;;
64986;SDS011;67903;52.108;9.358;2023-07-29T01:38:18;3.85;;;2.90;;
64986;SDS011;67903;52.108;9.358;2023-07-29T01:41:06;3.65;;;3.08;;
64986;SDS011;67903;52.108;9.358;2023-07-29T01:43:52;2.75;;;2.33;;
64986;SDS011;67903;52.108;9.358;2023-07-29T01:46:39;2.65;;;2.40;;
64986;SDS011;67903;52.108;9.358;2023-07-29T01:49:24;2.53;;;2.33;;
64986;SDS011;67903;52.108;9.358;2023-07-29T01:52:10;3.33;;;2.53;;
64986;SDS011;67903;52.108;9.358;2023-07-29T01:54:56;2.65;;;2.30;;
64986;SDS011;67903;52.108;9.358;2023-07-29T01:57:41;3.17;;;2.67;;
64986;SDS011;67903;52.108;9.358;2023-07-29T02:00:29;3.85;;;2.72;;
64986;SDS011;67903;52.108;9.358;2023-07-29T02:03:15;2.95;;;2.65;;
64986;SDS011;67903;52.108;9.358;2023-07-29T02:06:01;3.22;;;2.55;;
64986;SDS011;67903;52.108;9.358;2023-07-29T02:08:48;2.47;;;2.28;;
64986;SDS011;67903;52.108;9.358;2023-07-29T02:11:33;3.38;;;2.30;;
64986;SDS011;67903;52.108;9.358;2023-07-29T02:14:19;2.67;;;2.00;;
64986;SDS011;67903;52.108;9.358;2023-07-29T02:17:05;3.45;;;2.20;;
64986;SDS011;67903;52.108;9.358;2023-07-29T02:19:50;2.50;;;2.20;;
64986;SDS011;67903;52.108;9.358;2023-07-29T02:22:36;2.60;;;2.35;;
64986;SDS011;67903;52.108;9.358;2023-07-29T02:25:21;2.63;;;2.42;;
64986;SDS011;67903;52.108;9.358;2023-07-29T02:28:07;2.80;;;2.55;;
64986;SDS011;67903;52.108;9.358;2023-07-29T02:34:07;2.72;;;2.40;;
64986;SDS011;67903;52.108;9.358;2023-07-29T02:36:52;5.05;;;2.80;;
64986;SDS011;67903;52.108;9.358;2023-07-29T02:39:38;3.58;;;2.72;;
64986;SDS011;67903;52.108;9.358;2023-07-29T02:42:24;4.13;;;2.45;;
64986;SDS011;67903;52.108;9.358;2023-07-29T02:45:09;3.65;;;2.58;;
64986;SDS011;67903;52.108;9.358;2023-07-29T02:47:56;5.15;;;2.50;;
64986;SDS011;67903;52.108;9.358;2023-07-29T02:50:41;3.92;;;2.92;;
64986;SDS011;67903;52.108;9.358;2023-07-29T02:53:27;2.90;;;2.60;;
64986;SDS011;67903;52.108;9.358;2023-07-29T02:56:13;2.63;;;2.35;;
64986;SDS011;67903;52.108;9.358;2023-07-29T02:58:59;2.70;;;2.42;;
64986;SDS011;67903;52.108;9.358;2023-07-29T03:01:46;2.72;;;2.53;;
64986;SDS011;67903;52.108;9.358;2023-07-29T03:04:31;2.78;;;2.58;;
64986;SDS011;67903;52.108;9.358;2023-07-29T03:07:19;3.40;;;2.20;;
64986;SDS011;67903;52.108;9.358;2023-07-29T03:10:05;3.00;;;2.67;;
64986;SDS011;67903;52.108;9.358;2023-07-29T03:12:51;2.92;;;2.70;;
64986;SDS011;67903;52.108;9.358;2023-07-29T03:15:39;2.83;;;2.60;;
64986;SDS011;67903;52.108;9.358;2023-07-29T03:18:24;3.40;;;2.63;;
64986;SDS011;67903;52.108;9.358;2023-07-29T03:21:10;2.80;;;2.60;;
64986;SDS011;67903;52.108;9.358;2023-07-29T03:23:56;2.90;;;2.55;;
64986;SDS011;67903;52.108;9.358;2023-07-29T03:26:41;3.17;;;2.60;;
64986;SDS011;67903;52.108;9.358;2023-07-29T03:29:30;3.53;;;3.15;;
64986;SDS011;67903;52.108;9.358;2023-07-29T03:32:16;2.80;;;2.60;;
64986;SDS011;67903;52.108;9.358;2023-07-29T03:35:01;3.45;;;2.55;;
64986;SDS011;67903;52.108;9.358;2023-07-29T03:37:47;3.40;;;2.38;;
64986;SDS011;67903;52.108;9.358;2023-07-29T03:40:32;2.50;;;2.30;;
64986;SDS011;67903;52.108;9.358;2023-07-29T03:43:18;2.47;;;2.28;;
64986;SDS011;67903;52.108;9.358;2023-07-29T03:46:04;3.35;;;2.75;;
64986;SDS011;67903;52.108;9.358;2023-07-29T03:48:53;3.60;;;2.70;;
64986;SDS011;67903;52.108;9.358;2023-07-29T03:51:39;2.72;;;2.40;;
64986;SDS011;67903;52.108;9.358;2023-07-29T03:54:24;3.05;;;2.10;;
64986;SDS011;67903;52.108;9.358;2023-07-29T03:57:10;3.67;;;2.65;;
64986;SDS011;67903;52.108;9.358;2023-07-29T03:59:55;3.38;;;2.70;;
64986;SDS011;67903;52.108;9.358;2023-07-29T04:02:41;2.42;;;2.33;;
64986;SDS011;67903;52.108;9.358;2023-07-29T04:05:28;3.88;;;2.50;;
64986;SDS011;67903;52.108;9.358;2023-07-29T04:08:14;4.65;;;2.65;;
64986;SDS011;67903;52.108;9.358;2023-07-29T04:10:59;2.92;;;2.42;;
64986;SDS011;67903;52.108;9.358;2023-07-29T04:13:45;2.80;;;2.60;;
64986;SDS011;67903;52.108;9.358;2023-07-29T04:16:30;2.80;;;2.60;;
64986;SDS011;67903;52.108;9.358;2023-07-29T04:19:16;2.53;;;2.33;;
64986;SDS011;67903;52.108;9.358;2023-07-29T04:22:02;2.50;;;2.30;;
64986;SDS011;67903;52.108;9.358;2023-07-29T04:24:47;5.20;;;2.60;;
64986;SDS011;67903;52.108;9.358;2023-07-29T04:27:33;2.70;;;2.50;;
64986;SDS011;67903;52.108;9.358;2023-07-29T04:30:18;2.50;;;2.30;;
64986;SDS011;67903;52.108;9.358;2023-07-29T04:33:04;2.60;;;2.40;;
64986;SDS011;67903;52.108;9.358;2023-07-29T04:35:49;3.38;;;2.35;;
64986;SDS011;67903;52.108;9.358;2023-07-29T04:38:37;2.72;;;2.30;;
64986;SDS011;67903;52.108;9.358;2023-07-29T04:41:22;2.55;;;2.33;;
64986;SDS011;67903;52.108;9.358;2023-07-29T04:44:08;3.45;;;2.40;;
64986;SDS011;67903;52.108;9.358;2023-07-29T04:46:54;3.78;;;2.20;;
64986;SDS011;67903;52.108;9.358;2023-07-29T04:49:39;3.25;;;2.38;;
64986;SDS011;67903;52.108;9.358;2023-07-29T04:52:26;4.75;;;2.20;;
64986;SDS011;67903;52.108;9.358;2023-07-29T04:55:12;2.72;;;2.22;;
64986;SDS011;67903;52.108;9.358;2023-07-29T04:57:57;2.70;;;2.50;;
64986;SDS011;67903;52.108;9.358;2023-07-29T05:00:46;3.67;;;2.20;;
64986;SDS011;67903;52.108;9.358;2023-07-29T05:03:32;3.17;;;2.03;;
64986;SDS011;67903;52.108;9.358;2023-07-29T05:06:19;2.90;;;1.92;;
64986;SDS011;67903;52.108;9.358;2023-07-29T05:09:14;3.30;;;2.40;;
64986;SDS011;67903;52.108;9.358;2023-07-29T05:12:01;3.25;;;2.55;;
64986;SDS011;67903;52.108;9.358;2023-07-29T05:14:46;4.00;;;2.65;;
64986;SDS011;67903;52.108;9.358;2023-07-29T05:17:32;4.07;;;2.65;;
64986;SDS011;67903;52.108;9.358;2023-07-29T05:20:17;2.85;;;2.50;;
64986;SDS011;67903;52.108;9.358;2023-07-29T05:23:03;3.47;;;2.45;;
64986;SDS011;67903;52.108;9.358;2023-07-29T05:25:48;2.53;;;2.10;;
64986;SDS011;67903;52.108;9.358;2023-07-29T05:28:34;3.80;;;2.42;;
64986;SDS011;67903;52.108;9.358;2023-07-29T05:31:20;2.55;;;2.22;;
64986;SDS011;67903;52.108;9.358;2023-07-29T05:34:05;3.13;;;2.33;;
64986;SDS011;67903;52.108;9.358;2023-07-29T05:36:51;3.67;;;2.30;;
64986;SDS011;67903;52.108;9.358;2023-07-29T05:39:36;3.55;;;2.50;;
64986;SDS011;67903;52.108;9.358;2023-07-29T05:42:22;3.45;;;2.67;;
64986;SDS011;67903;52.108;9.358;2023-07-29T05:45:08;3.50;;;2.30;;
64986;SDS011;67903;52.108;9.358;2023-07-29T05:47:54;2.58;;;2.38;;
64986;SDS011;67903;52.108;9.358;2023-07-29T05:50:40;3.70;;;2.55;;
64986;SDS011;67903;52.108;9.358;2023-07-29T05:53:25;7.05;;;2.75;;
64986;SDS011;67903;52.108;9.358;2023-07-29T05:56:11;3.63;;;2.63;;
64986;SDS011;67903;52.108;9.358;2023-07-29T05:58:56;4.07;;;2.85;;
64986;SDS011;67903;52.108;9.358;2023-07-29T06:01:42;4.32;;;2.72;;
64986;SDS011;67903;52.108;9.358;2023-07-29T06:04:28;3.40;;;2.47;;
64986;SDS011;67903;52.108;9.358;2023-07-29T06:07:13;4.18;;;2.55;;
64986;SDS011;67903;52.108;9.358;2023-07-29T06:09:59;4.13;;;2.50;;
64986;SDS011;67903;52.108;9.358;2023-07-29T06:12:45;4.72;;;2.72;;
64986;SDS011;67903;52.108;9.358;2023-07-29T06:15:31;4.28;;;2.83;;
64986;SDS011;67903;52.108;9.358;2023-07-29T06:18:17;3.15;;;2.30;;
64986;SDS011;67903;52.108;9.358;2023-07-29T06:21:02;3.83;;;2.40;;
64986;SDS011;67903;52.108;9.358;2023-07-29T06:23:52;4.82;;;2.70;;
64986;SDS011;67903;52.108;9.358;2023-07-29T06:26:38;4.80;;;2.45;;
64986;SDS011;67903;52.108;9.358;2023-07-29T06:29:23;3.35;;;2.17;;
64986;SDS011;67903;52.108;9.358;2023-07-29T06:32:09;3.53;;;2.28;;
64986;SDS011;67903;52.108;9.358;2023-07-29T06:34:55;2.65;;;2.25;;
64986;SDS011;67903;52.108;9.358;2023-07-29T06:37:40;2.65;;;2.30;;
64986;SDS011;67903;52.108;9.358;2023-07-29T06:40:26;3.28;;;1.95;;
64986;SDS011;67903;52.108;9.358;2023-07-29T06:43:11;5.47;;;2.05;;
64986;SDS011;67903;52.108;9.358;2023-07-29T06:45:57;2.40;;;2.10;;
64986;SDS011;67903;52.108;9.358;2023-07-29T06:48:42;3.00;;;2.15;;
64986;SDS011;67903;52.108;9.358;2023-07-29T06:51:28;1.95;;;1.75;;
64986;SDS011;67903;52.108;9.358;2023-07-29T06:54:17;2.30;;;2.10;;
64986;SDS011;67903;52.108;9.358;2023-07-29T06:57:02;2.95;;;2.08;;
64986;SDS011;67903;52.108;9.358;2023-07-29T06:59:48;2.90;;;2.00;;
64986;SDS011;67903;52.108;9.358;2023-07-29T07:02:33;3.78;;;2.00;;
64986;SDS011;67903;52.108;9.358;2023-07-29T07:05:19;2.47;;;2.03;;
64986;SDS011;67903;52.108;9.358;2023-07-29T07:08:05;4.20;;;2.08;;
64986;SDS011;67903;52.108;9.358;2023-07-29T07:10:50;3.67;;;1.85;;
64986;SDS011;67903;52.108;9.358;2023-07-29T07:13:36;3.25;;;1.80;;
64986;SDS011;67903;52.108;9.358;2023-07-29T07:16:22;2.20;;;2.00;;
64986;SDS011;67903;52.108;9.358;2023-07-29T07:19:08;3.53;;;2.92;;
64986;SDS011;67903;52.108;9.358;2023-07-29T07:21:53;3.03;;;2.03;;
64986;SDS011;67903;52.108;9.358;2023-07-29T07:24:39;2.78;;;1.75;;
64986;SDS011;67903;52.108;9.358;2023-07-29T07:27:24;1.60;;;1.50;;
64986;SDS011;67903;52.108;9.358;2023-07-29T07:30:10;3.25;;;2.75;;
64986;SDS011;67903;52.108;9.358;2023-07-29T07:32:56;3.03;;;2.65;;
64986;SDS011;67903;52.108;9.358;2023-07-29T07:35:41;1.83;;;1.63;;
64986;SDS011;67903;52.108;9.358;2023-07-29T07:38:27;2.13;;;1.80;;
64986;SDS011;67903;52.108;9.358;2023-07-29T07:41:12;2.45;;;1.50;;
64986;SDS011;67903;52.108;9.358;2023-07-29T07:43:59;2.33;;;1.35;;
64986;SDS011;67903;52.108;9.358;2023-07-29T07:46:45;1.77;;;1.58;;
64986;SDS011;67903;52.108;9.358;2023-07-29T07:49:30;1.40;;;1.30;;
64986;SDS011;67903;52.108;9.358;2023-07-29T07:52:16;1.70;;;1.60;;
64986;SDS011;67903;52.108;9.358;2023-07-29T07:55:01;1.65;;;1.55;;
64986;SDS011;67903;52.108;9.358;2023-07-29T07:57:47;2.13;;;1.83;;
64986;SDS011;67903;52.108;9.358;2023-07-29T08:00:32;2.90;;;2.70;;
64986;SDS011;67903;52.108;9.358;2023-07-29T08:03:18;3.10;;;1.98;;
64986;SDS011;67903;52.108;9.358;2023-07-29T08:06:04;2.08;;;1.88;;
64986;SDS011;67903;52.108;9.358;2023-07-29T08:08:53;3.15;;;2.00;;
64986;SDS011;67903;52.108;9.358;2023-07-29T08:11:39;2.30;;;2.10;;
64986;SDS011;67903;52.108;9.358;2023-07-29T08:14:24;2.38;;;1.80;;
64986;SDS011;67903;52.108;9.358;2023-07-29T08:17:11;3.22;;;2.00;;
64986;SDS011;67903;52.108;9.358;2023-07-29T08:19:57;1.92;;;1.83;;
64986;SDS011;67903;52.108;9.358;2023-07-29T08:22:42;2.53;;;2.22;;
64986;SDS011;67903;52.108;9.358;2023-07-29T08:25:28;2.78;;;2.45;;
64986;SDS011;67903;52.108;9.358;2023-07-29T08:28:13;3.20;;;3.00;;
64986;SDS011;67903;52.108;9.358;2023-07-29T08:30:59;3.47;;;2.85;;
64986;SDS011;67903;52.108;9.358;2023-07-29T08:33:45;3.38;;;3.17;;
64986;SDS011;67903;52.108;9.358;2023-07-29T08:36:31;2.95;;;2.75;;
64986;SDS011;67903;52.108;9.358;2023-07-29T08:39:16;3.60;;;3.22;;
64986;SDS011;67903;52.108;9.358;2023-07-29T08:42:03;3.42;;;3.20;;
64986;SDS011;67903;52.108;9.358;2023-07-29T08:44:50;3.33;;;3.13;;
64986;SDS011;67903;52.108;9.358;2023-07-29T08:47:36;4.97;;;3.75;;
64986;SDS011;67903;52.108;9.358;2023-07-29T08:50:21;4.10;;;3.70;;
64986;SDS011;67903;52.108;9.358;2023-07-29T08:53:07;4.18;;;3.88;;
64986;SDS011;67903;52.108;9.358;2023-07-29T08:55:53;6.18;;;5.60;;
64986;SDS011;67903;52.108;9.358;2023-07-29T08:58:40;6.70;;;6.20;;
64986;SDS011;67903;52.108;9.358;2023-07-29T09:01:26;6.55;;;5.95;;
64986;SDS011;67903;52.108;9.358;2023-07-29T09:04:12;7.82;;;7.18;;
64986;SDS011;67903;52.108;9.358;2023-07-29T09:06:57;7.38;;;6.70;;
64986;SDS011;67903;52.108;9.358;2023-07-29T09:09:44;13.40;;;12.20;;
64986;SDS011;67903;52.108;9.358;2023-07-29T09:12:31;9.20;;;8.25;;
64986;SDS011;67903;52.108;9.358;2023-07-29T09:15:29;10.02;;;8.93;;
64986;SDS011;67903;52.108;9.358;2023-07-29T09:18:17;10.20;;;9.40;;
64986;SDS011;67903;52.108;9.358;2023-07-29T09:21:11;9.48;;;8.68;;
64986;SDS011;67903;52.108;9.358;2023-07-29T09:23:58;9.80;;;9.00;;
64986;SDS011;67903;52.108;9.358;2023-07-29T09:26:50;8.10;;;7.30;;
64986;SDS011;67903;52.108;9.358;2023-07-29T09:29:40;6.60;;;6.10;;
64986;SDS011;67903;52.108;9.358;2023-07-29T09:32:26;7.20;;;6.65;;
64986;SDS011;67903;52.108;9.358;2023-07-29T09:35:13;6.80;;;6.20;;
64986;SDS011;67903;52.108;9.358;2023-07-29T09:38:05;6.80;;;6.22;;
64986;SDS011;67903;52.108;9.358;2023-07-29T09:40:55;7.05;;;6.55;;
64986;SDS011;67903;52.108;9.358;2023-07-29T09:43:43;6.05;;;5.57;;
64986;SDS011;67903;52.108;9.358;2023-07-29T09:46:33;6.60;;;5.90;;
64986;SDS011;67903;52.108;9.358;2023-07-29T09:49:23;5.60;;;5.10;;
64986;SDS011;67903;52.108;9.358;2023-07-29T09:52:17;5.00;;;4.60;;
64986;SDS011;67903;52.108;9.358;2023-07-29T09:55:07;5.07;;;4.63;;
64986;SDS011;67903;52.108;9.358;2023-07-29T09:58:02;4.43;;;4.03;;
64986;SDS011;67903;52.108;9.358;2023-07-29T10:00:52;4.60;;;4.30;;
64986;SDS011;67903;52.108;9.358;2023-07-29T10:03:38;4.32;;;3.97;;
64986;SDS011;67903;52.108;9.358;2023-07-29T10:06:25;4.53;;;4.22;;
64986;SDS011;67903;52.108;9.358;2023-07-29T10:09:13;4.47;;;4.10;;
64986;SDS011;67903;52.108;9.358;2023-07-29T10:11:59;5.32;;;4.45;;
64986;SDS011;67903;52.108;9.358;2023-07-29T10:14:44;4.78;;;4.38;;
64986;SDS011;67903;52.108;9.358;2023-07-29T10:17:34;4.40;;;4.10;;
64986;SDS011;67903;52.108;9.358;2023-07-29T10:20:23;4.05;;;3.75;;
64986;SDS011;67903;52.108;9.358;2023-07-29T10:23:09;4.20;;;3.90;;
64986;SDS011;67903;52.108;9.358;2023-07-29T10:26:05;4.25;;;3.90;;
64986;SDS011;67903;52.108;9.358;2023-07-29T10:28:57;4.57;;;4.10;;
64986;SDS011;67903;52.108;9.358;2023-07-29T10:31:58;3.90;;;3.60;;
64986;SDS011;67903;52.108;9.358;2023-07-29T10:34:49;3.78;;;3.50;;
64986;SDS011;67903;52.108;9.358;2023-07-29T10:37:36;3.88;;;3.58;;
64986;SDS011;67903;52.108;9.358;2023-07-29T10:40:25;3.50;;;3.20;;
64986;SDS011;67903;52.108;9.358;2023-07-29T10:43:13;4.38;;;2.75;;
64986;SDS011;67903;52.108;9.358;2023-07-29T10:46:22;6.00;;;3.40;;
64986;SDS011;67903;52.108;9.358;2023-07-29T10:49:09;2.63;;;2.42;;
64986;SDS011;67903;52.108;9.358;2023-07-29T10:51:55;2.53;;;2.15;;
64986;SDS011;67903;52.108;9.358;2023-07-29T10:54:45;2.50;;;2.30;;
64986;SDS011;67903;52.108;9.358;2023-07-29T10:57:32;2.70;;;2.50;;
64986;SDS011;67903;52.108;9.358;2023-07-29T11:00:19;2.28;;;1.90;;
64986;SDS011;67903;52.108;9.358;2023-07-29T11:03:08;1.83;;;1.67;;
64986;SDS011;67903;52.108;9.358;2023-07-29T11:05:54;2.03;;;1.77;;
64986;SDS011;67903;52.108;9.358;2023-07-29T11:08:39;2.08;;;1.40;;
64986;SDS011;67903;52.108;9.358;2023-07-29T11:11:25;1.42;;;1.33;;
64986;SDS011;67903;52.108;9.358;2023-07-29T11:14:10;3.47;;;1.77;;
64986;SDS011;67903;52.108;9.358;2023-07-29T11:16:57;1.42;;;1.30;;
64986;SDS011;67903;52.108;9.358;2023-07-29T11:19:43;1.75;;;1.52;;
64986;SDS011;67903;52.108;9.358;2023-07-29T11:22:29;2.47;;;1.52;;
64986;SDS011;67903;52.108;9.358;2023-07-29T11:25:18;1.30;;;1.20;;
64986;SDS011;67903;52.108;9.358;2023-07-29T11:28:04;2.35;;;1.38;;
64986;SDS011;67903;52.108;9.358;2023-07-29T11:30:51;1.40;;;1.30;;
64986;SDS011;67903;52.108;9.358;2023-07-29T11:33:38;1.83;;;1.30;;
64986;SDS011;67903;52.108;9.358;2023-07-29T11:36:24;2.95;;;1.40;;
64986;SDS011;67903;52.108;9.358;2023-07-29T11:39:09;1.30;;;1.20;;
64986;SDS011;67903;52.108;9.358;2023-07-29T11:41:56;2.80;;;1.30;;
64986;SDS011;67903;52.108;9.358;2023-07-29T11:44:41;1.20;;;1.10;;
64986;SDS011;67903;52.108;9.358;2023-07-29T11:47:27;1.33;;;1.20;;
64986;SDS011;67903;52.108;9.358;2023-07-29T11:50:13;1.05;;;0.95;;
64986;SDS011;67903;52.108;9.358;2023-07-29T11:52:59;1.20;;;1.10;;
64986;SDS011;67903;52.108;9.358;2023-07-29T11:55:49;2.15;;;1.20;;
64986;SDS011;67903;52.108;9.358;2023-07-29T11:58:37;1.30;;;1.08;;
64986;SDS011;67903;52.108;9.358;2023-07-29T12:01:22;1.08;;;0.98;;
64986;SDS011;67903;52.108;9.358;2023-07-29T12:04:08;1.15;;;1.05;;
64986;SDS011;67903;52.108;9.358;2023-07-29T12:06:54;1.10;;;1.00;;
64986;SDS011;67903;52.108;9.358;2023-07-29T12:09:41;1.00;;;0.90;;
64986;SDS011;67903;52.108;9.358;2023-07-29T12:12:27;1.00;;;0.98;;
64986;SDS011;67903;52.108;9.358;2023-07-29T12:15:13;1.02;;;0.90;;
64986;SDS011;67903;52.108;9.358;2023-07-29T12:17:59;1.23;;;1.13;;
64986;SDS011;67903;52.108;9.358;2023-07-29T12:20:45;1.00;;;1.00;;
64986;SDS011;67903;52.108;9.358;2023-07-29T12:23:30;1.20;;;1.00;;
64986;SDS011;67903;52.108;9.358;2023-07-29T12:26:16;1.10;;;1.00;;
64986;SDS011;67903;52.108;9.358;2023-07-29T12:29:11;1.10;;;1.00;;
64986;SDS011;67903;52.108;9.358;2023-07-29T12:31:58;1.15;;;1.00;;
64986;SDS011;67903;52.108;9.358;2023-07-29T12:34:45;1.20;;;1.10;;
64986;SDS011;67903;52.108;9.358;2023-07-29T12:37:31;1.33;;;1.23;;
64986;SDS011;67903;52.108;9.358;2023-07-29T12:40:24;1.00;;;0.85;;
64986;SDS011;67903;52.108;9.358;2023-07-29T12:43:11;0.85;;;0.85;;
64986;SDS011;67903;52.108;9.358;2023-07-29T12:45:57;1.48;;;1.08;;
64986;SDS011;67903;52.108;9.358;2023-07-29T12:48:42;1.27;;;1.17;;
64986;SDS011;67903;52.108;9.358;2023-07-29T12:51:28;1.15;;;0.90;;
64986;SDS011;67903;52.108;9.358;2023-07-29T12:54:13;3.13;;;0.95;;
64986;SDS011;67903;52.108;9.358;2023-07-29T12:56:59;1.25;;;1.00;;
64986;SDS011;67903;52.108;9.358;2023-07-29T12:59:45;1.52;;;0.93;;
64986;SDS011;67903;52.108;9.358;2023-07-29T13:02:31;1.20;;;1.10;;
64986;SDS011;67903;52.108;9.358;2023-07-29T13:05:17;1.15;;;1.02;;
64986;SDS011;67903;52.108;9.358;2023-07-29T13:08:02;1.00;;;1.00;;
64986;SDS011;67903;52.108;9.358;2023-07-29T13:10:48;1.63;;;1.45;;
64986;SDS011;67903;52.108;9.358;2023-07-29T13:13:34;1.13;;;1.02;;
64986;SDS011;67903;52.108;9.358;2023-07-29T13:16:19;1.05;;;1.00;;
64986;SDS011;67903;52.108;9.358;2023-07-29T13:19:05;1.73;;;1.30;;
64986;SDS011;67903;52.108;9.358;2023-07-29T13:21:50;1.10;;;1.00;;
64986;SDS011;67903;52.108;9.358;2023-07-29T13:24:36;1.20;;;1.10;;
64986;SDS011;67903;52.108;9.358;2023-07-29T13:27:22;1.85;;;1.13;;
64986;SDS011;67903;52.108;9.358;2023-07-29T13:30:08;1.10;;;1.00;;
64986;SDS011;67903;52.108;9.358;2023-07-29T13:32:54;2.22;;;1.13;;
64986;SDS011;67903;52.108;9.358;2023-07-29T13:35:40;1.52;;;1.30;;
64986;SDS011;67903;52.108;9.358;2023-07-29T13:38:25;1.27;;;1.17;;
64986;SDS011;67903;52.108;9.358;2023-07-29T13:41:11;1.92;;;1.35;;
64986;SDS011;67903;52.108;9.358;2023-07-29T13:43:56;2.03;;;1.30;;
64986;SDS011;67903;52.108;9.358;2023-07-29T13:46:42;1.25;;;1.15;;
64986;SDS011;67903;52.108;9.358;2023-07-29T13:49:28;1.35;;;1.25;;
64986;SDS011;67903;52.108;9.358;2023-07-29T13:52:13;1.30;;;1.20;;
64986;SDS011;67903;52.108;9.358;2023-07-29T13:54:59;1.42;;;1.33;;
64986;SDS011;67903;52.108;9.358;2023-07-29T13:57:45;1.42;;;1.33;;
64986;SDS011;67903;52.108;9.358;2023-07-29T14:00:31;1.63;;;1.52;;
64986;SDS011;67903;52.108;9.358;2023-07-29T14:03:16;2.05;;;1.50;;
64986;SDS011;67903;52.108;9.358;2023-07-29T14:06:02;1.40;;;1.30;;
64986;SDS011;67903;52.108;9.358;2023-07-29T14:08:48;1.45;;;1.35;;
64986;SDS011;67903;52.108;9.358;2023-07-29T14:11:33;1.55;;;1.45;;
64986;SDS011;67903;52.108;9.358;2023-07-29T14:14:19;3.13;;;2.55;;
64986;SDS011;67903;52.108;9.358;2023-07-29T14:17:06;1.55;;;1.45;;
64986;SDS011;67903;52.108;9.358;2023-07-29T14:19:53;1.90;;;1.60;;
64986;SDS011;67903;52.108;9.358;2023-07-29T14:22:39;1.52;;;1.40;;
64986;SDS011;67903;52.108;9.358;2023-07-29T14:25:25;2.72;;;1.48;;
64986;SDS011;67903;52.108;9.358;2023-07-29T14:28:10;2.75;;;1.50;;
64986;SDS011;67903;52.108;9.358;2023-07-29T14:30:57;1.40;;;1.30;;
64986;SDS011;67903;52.108;9.358;2023-07-29T14:33:43;1.48;;;1.30;;
64986;SDS011;67903;52.108;9.358;2023-07-29T14:36:29;1.40;;;1.23;;
64986;SDS011;67903;52.108;9.358;2023-07-29T14:39:14;1.15;;;1.05;;
64986;SDS011;67903;52.108;9.358;2023-07-29T14:42:00;1.55;;;1.45;;
64986;SDS011;67903;52.108;9.358;2023-07-29T14:44:45;1.88;;;1.50;;
64986;SDS011;67903;52.108;9.358;2023-07-29T14:47:31;1.40;;;1.30;;
64986;SDS011;67903;52.108;9.358;2023-07-29T14:50:19;1.40;;;1.30;;
64986;SDS011;67903;52.108;9.358;2023-07-29T14:53:05;1.50;;;1.40;;
64986;SDS011;67903;52.108;9.358;2023-07-29T14:55:51;1.75;;;1.35;;
64986;SDS011;67903;52.108;9.358;2023-07-29T14:58:36;2.00;;;1.50;;
64986;SDS011;67903;52.108;9.358;2023-07-29T15:01:22;1.50;;;1.40;;
64986;SDS011;67903;52.108;9.358;2023-07-29T15:04:08;1.60;;;1.48;;
64986;SDS011;67903;52.108;9.358;2023-07-29T15:06:53;1.60;;;1.50;;
64986;SDS011;67903;52.108;9.358;2023-07-29T15:09:39;1.45;;;1.35;;
64986;SDS011;67903;52.108;9.358;2023-07-29T15:12:31;2.53;;;1.60;;
64986;SDS011;67903;52.108;9.358;2023-07-29T15:15:17;2.20;;;1.42;;
64986;SDS011;67903;52.108;9.358;2023-07-29T15:18:03;2.25;;;1.55;;
64986;SDS011;67903;52.108;9.358;2023-07-29T15:20:53;1.67;;;1.42;;
64986;SDS011;67903;52.108;9.358;2023-07-29T15:23:39;2.00;;;1.90;;
64986;SDS011;67903;52.108;9.358;2023-07-29T15:26:25;2.33;;;1.83;;
64986;SDS011;67903;52.108;9.358;2023-07-29T15:29:15;2.33;;;2.13;;
64986;SDS011;67903;52.108;9.358;2023-07-29T15:32:01;3.15;;;2.10;;
64986;SDS011;67903;52.108;9.358;2023-07-29T15:34:49;2.13;;;2.00;;
64986;SDS011;67903;52.108;9.358;2023-07-29T15:37:35;2.35;;;2.15;;
64986;SDS011;67903;52.108;9.358;2023-07-29T15:40:22;2.30;;;2.10;;
64986;SDS011;67903;52.108;9.358;2023-07-29T15:43:08;2.45;;;2.20;;
64986;SDS011;67903;52.108;9.358;2023-07-29T15:45:55;2.28;;;2.05;;
64986;SDS011;67903;52.108;9.358;2023-07-29T15:48:43;4.30;;;3.92;;
64986;SDS011;67903;52.108;9.358;2023-07-29T15:51:35;5.88;;;5.35;;
64986;SDS011;67903;52.108;9.358;2023-07-29T15:54:21;4.03;;;3.15;;
64986;SDS011;67903;52.108;9.358;2023-07-29T15:57:12;3.33;;;2.70;;
64986;SDS011;67903;52.108;9.358;2023-07-29T16:00:05;2.67;;;2.47;;
64986;SDS011;67903;52.108;9.358;2023-07-29T16:02:59;2.67;;;2.47;;
64986;SDS011;67903;52.108;9.358;2023-07-29T16:05:45;2.50;;;2.30;;
64986;SDS011;67903;52.108;9.358;2023-07-29T16:08:34;2.40;;;2.20;;
64986;SDS011;67903;52.108;9.358;2023-07-29T16:11:21;2.97;;;2.50;;
64986;SDS011;67903;52.108;9.358;2023-07-29T16:14:08;3.42;;;3.13;;
64986;SDS011;67903;52.108;9.358;2023-07-29T16:16:58;2.60;;;2.40;;
64986;SDS011;67903;52.108;9.358;2023-07-29T16:19:55;3.08;;;2.78;;
64986;SDS011;67903;52.108;9.358;2023-07-29T16:22:43;3.05;;;2.85;;
64986;SDS011;67903;52.108;9.358;2023-07-29T16:25:29;3.15;;;2.40;;
64986;SDS011;67903;52.108;9.358;2023-07-29T16:28:15;3.88;;;3.45;;
64986;SDS011;67903;52.108;9.358;2023-07-29T16:31:05;3.33;;;3.03;;
64986;SDS011;67903;52.108;9.358;2023-07-29T16:33:54;3.20;;;2.80;;
64986;SDS011;67903;52.108;9.358;2023-07-29T16:36:47;4.38;;;3.53;;
64986;SDS011;67903;52.108;9.358;2023-07-29T16:39:33;3.00;;;2.80;;
64986;SDS011;67903;52.108;9.358;2023-07-29T16:42:22;3.72;;;3.42;;
64986;SDS011;67903;52.108;9.358;2023-07-29T16:45:11;6.55;;;4.85;;
64986;SDS011;67903;52.108;9.358;2023-07-29T16:48:00;3.33;;;3.03;;
64986;SDS011;67903;52.108;9.358;2023-07-29T16:50:47;3.30;;;3.00;;
64986;SDS011;67903;52.108;9.358;2023-07-29T16:53:45;3.40;;;2.65;;
64986;SDS011;67903;52.108;9.358;2023-07-29T16:56:31;2.88;;;2.60;;